Time;durP1;ratioP1;P1;durP2;ratioP2;P2;SDS_P1;SDS_P2;PMS_P1;PMS_P2;Temp;Humidity;BMP_temperature;BMP_pressure;BME280_temperature;BME280_humidity;BME280_pressure;Samples;Min_cycle;Max_cycle;Signal;HPM_P1;HPM_P2
2022/03/22 00:00:30;;;;;;;;;;;;;;;;;;4979779;28;20060;-65
2022/03/22 00:02:57;;;;;;;;;;;;;;;;;;4979010;28;19925;-65
2022/03/22 00:05:23;;;;;;;;;;;;;;;;;;4979058;28;20044;-65
2022/03/22 00:07:49;;;;;;;;;;;;;;;;;;4975010;28;19918;-65
2022/03/22 00:10:15;;;;;;;;;;;;;;;;;;4976354;28;19925;-65
2022/03/22 00:12:41;;;;;;;;;;;;;;;;;;4974764;28;20415;-64
2022/03/22 00:15:08;;;;;;;;;;;;;;;;;;4978963;28;19924;-66
2022/03/22 00:17:34;;;;;;;;;;;;;;;;;;4976559;28;20318;-66
2022/03/22 00:20:00;;;;;;;;;;;;;;;;;;5005784;28;19921;-65
2022/03/22 00:22:27;;;;;;;;;;;;;;;;;;5014491;28;20413;-69
2022/03/22 00:24:53;;;;;;;;;;;;;;;;;;5004830;28;20470;-65
2022/03/22 00:27:19;;;;;;;;;;;;;;;;;;4998107;28;19944;-66
2022/03/22 00:29:45;;;;;;;;;;;;;;;;;;5009492;28;20102;-66
2022/03/22 00:32:11;;;;;;;;;;;;;;;;;;5010552;28;20433;-66
2022/03/22 00:34:46;;;;;;;;;;;;;;;;;;5009532;28;19960;-66
2022/03/22 00:37:14;;;;;;;;;;;;;;;;;;5014381;28;20326;-66
2022/03/22 00:39:40;;;;;;;;;;;;;;;;;;5000642;28;19982;-66
2022/03/22 00:42:06;;;;;;;;;;;;;;;;;;5016754;28;20371;-66
2022/03/22 00:44:32;;;;;;;;;;;;;;;;;;5013878;28;19917;-66
2022/03/22 00:46:59;;;;;;;;;;;;;;;;;;5015891;28;20370;-65
2022/03/22 00:49:25;;;;;;;;;;;;;;;;;;5011822;28;20425;-66
2022/03/22 00:51:51;;;;;;;;;;;;;;;;;;5010499;28;21546;-66
2022/03/22 00:54:17;;;;;;;;;;;;;;;;;;5016539;28;20347;-66
2022/03/22 00:56:43;;;;;;;;;;;;;;;;;;5012088;28;19959;-66
2022/03/22 01:01:53;;;;;;;;;;;;;;;;;;5012868;28;20303;-66
2022/03/22 01:04:19;;;;;;;;;;;;;;;;;;5013064;28;20422;-65
2022/03/22 01:06:45;;;;;;;;;;;;;;;;;;5013949;28;19917;-66
2022/03/22 01:09:11;;;;;;;;;;;;;;;;;;5015001;28;20024;-66
2022/03/22 01:11:39;;;;;;;;;;;;;;;;;;5008810;28;20169;-66
2022/03/22 01:14:05;;;;;;;;;;;;;;;;;;5016874;28;19992;-66
2022/03/22 01:16:31;;;;;;;;;;;;;;;;;;5017355;28;19975;-66
2022/03/22 01:18:57;;;;;;;;;;;;;;;;;;5003078;28;19920;-66
2022/03/22 01:21:23;;;;;;;;;;;;;;;;;;5015606;28;19939;-66
2022/03/22 01:23:50;;;;;;;;;;;;;;;;;;5013426;28;20454;-65
2022/03/22 01:26:16;;;;;;;;;;;;;;;;;;5017547;28;19917;-66
2022/03/22 01:28:42;;;;;;;;;;;;;;;;;;5016652;28;19916;-66
2022/03/22 01:31:08;;;;;;;;;;;;;;;;;;5026878;28;19947;-66
2022/03/22 01:33:34;;;;;;;;;;;;;;;;;;5022958;28;19924;-66
2022/03/22 01:36:00;;;;;;;;;;;;;;;;;;5022797;28;19956;-66
2022/03/22 01:38:26;;;;;;;;;;;;;;;;;;5021373;28;19937;-66
2022/03/22 01:40:52;;;;;;;;;;;;;;;;;;5021489;28;21239;-66
2022/03/22 01:43:18;;;;;;;;;;;;;;;;;;5026380;28;20363;-66
2022/03/22 01:45:44;;;;;;;;;;;;;;;;;;5021538;28;19924;-65
2022/03/22 01:48:10;;;;;;;;;;;;;;;;;;5021232;28;19955;-66
2022/03/22 01:50:36;;;;;;;;;;;;;;;;;;5018457;28;19935;-66
2022/03/22 01:53:02;;;;;;;;;;;;;;;;;;5025259;28;20441;-66
2022/03/22 01:55:28;;;;;;;;;;;;;;;;;;5020038;28;19917;-66
2022/03/22 01:57:55;;;;;;;;;;;;;;;;;;5022581;28;19928;-66
2022/03/22 02:00:21;;;;;;;;;;;;;;;;;;5024783;28;19928;-66
2022/03/22 02:08:16;;;;;;;;;;;;;;;;;;5024346;28;19927;-65
2022/03/22 02:10:42;;;;;;;;;;;;;;;;;;5020612;28;20385;-66
2022/03/22 02:13:08;;;;;;;;;;;;;;;;;;5024216;28;19913;-66
2022/03/22 02:15:34;;;;;;;;;;;;;;;;;;5018687;28;19920;-66
2022/03/22 02:18:00;;;;;;;;;;;;;;;;;;5020350;28;19927;-66
2022/03/22 02:20:26;;;;;;;;;;;;;;;;;;5022719;28;19970;-66
2022/03/22 02:22:52;;;;;;;;;;;;;;;;;;5016830;28;19921;-66
2022/03/22 02:25:18;;;;;;;;;;;;;;;;;;5021385;28;19913;-66
2022/03/22 02:27:44;;;;;;;;;;;;;;;;;;5018009;28;20826;-66
2022/03/22 02:30:10;;;;;;;;;;;;;;;;;;5004686;28;19924;-66
2022/03/22 02:32:36;;;;;;;;;;;;;;;;;;5020992;28;19920;-66
2022/03/22 02:35:04;;;;;;;;;;;;;;;;;;5022597;28;19935;-66
2022/03/22 02:37:30;;;;;;;;;;;;;;;;;;5021893;28;19925;-66
2022/03/22 02:39:56;;;;;;;;;;;;;;;;;;5020730;28;20386;-66
2022/03/22 02:42:22;;;;;;;;;;;;;;;;;;5019687;28;19921;-65
2022/03/22 02:44:48;;;;;;;;;;;;;;;;;;5017053;28;21039;-66
2022/03/22 02:47:14;;;;;;;;;;;;;;;;;;5021301;28;19928;-66
2022/03/22 02:49:40;;;;;;;;;;;;;;;;;;5021375;28;20204;-66
2022/03/22 02:52:06;;;;;;;;;;;;;;;;;;5018471;28;20290;-66
2022/03/22 02:54:32;;;;;;;;;;;;;;;;;;5019280;28;19920;-66
2022/03/22 02:56:58;;;;;;;;;;;;;;;;;;5022570;28;19964;-66
2022/03/22 02:59:24;;;;;;;;;;;;;;;;;;5025711;28;20448;-65
2022/03/22 03:01:50;;;;;;;;;;;;;;;;;;5018110;28;19923;-66
2022/03/22 03:04:16;;;;;;;;;;;;;;;;;;5021289;28;20772;-66
2022/03/22 03:06:42;;;;;;;;;;;;;;;;;;5017894;28;20503;-66
2022/03/22 03:09:08;;;;;;;;;;;;;;;;;;5018273;28;19940;-66
2022/03/22 03:11:34;;;;;;;;;;;;;;;;;;5020186;28;19917;-66
2022/03/22 03:16:44;;;;;;;;;;;;;;;;;;5017341;28;19959;-66
2022/03/22 03:19:10;;;;;;;;;;;;;;;;;;5024489;28;20007;-66
2022/03/22 03:21:36;;;;;;;;;;;;;;;;;;5016607;28;21176;-66
2022/03/22 03:24:02;;;;;;;;;;;;;;;;;;5021221;28;19929;-66
2022/03/22 03:26:28;;;;;;;;;;;;;;;;;;5001778;28;19924;-66
2022/03/22 03:28:54;;;;;;;;;;;;;;;;;;5017803;28;20369;-66
2022/03/22 03:31:20;;;;;;;;;;;;;;;;;;5019187;28;19917;-66
2022/03/22 03:33:46;;;;;;;;;;;;;;;;;;5015299;28;20374;-66
2022/03/22 03:36:12;;;;;;;;;;;;;;;;;;5018301;28;20015;-66
2022/03/22 03:38:41;;;;;;;;;;;;;;;;;;5018232;28;20242;-66
2022/03/22 03:43:52;;;;;;;;;;;;;;;;;;5016604;28;21696;-66
2022/03/22 03:49:02;;;;;;;;;;;;;;;;;;5018998;28;20021;-66
2022/03/22 03:51:28;;;;;;;;;;;;;;;;;;5023476;28;19917;-66
2022/03/22 03:53:54;;;;;;;;;;;;;;;;;;5019200;28;19924;-66
2022/03/22 03:56:20;;;;;;;;;;;;;;;;;;5019298;28;20032;-65
2022/03/22 03:58:46;;;;;;;;;;;;;;;;;;5012988;28;20477;-65
2022/03/22 04:01:12;;;;;;;;;;;;;;;;;;5018995;28;19923;-65
2022/03/22 04:03:39;;;;;;;;;;;;;;;;;;5016661;28;19987;-66
2022/03/22 04:06:06;;;;;;;;;;;;;;;;;;5021293;28;20402;-65
2022/03/22 04:08:32;;;;;;;;;;;;;;;;;;5015640;28;19925;-66
2022/03/22 04:10:58;;;;;;;;;;;;;;;;;;5019311;28;20333;-66
2022/03/22 04:13:24;;;;;;;;;;;;;;;;;;5017019;28;19917;-66
2022/03/22 04:15:50;;;;;;;;;;;;;;;;;;5001199;28;20278;-66
2022/03/22 04:18:16;;;;;;;;;;;;;;;;;;5020301;28;19986;-66
2022/03/22 04:20:43;;;;;;;;;;;;;;;;;;5016496;28;20450;-65
2022/03/22 04:23:09;;;;;;;;;;;;;;;;;;5019840;28;19917;-66
2022/03/22 04:25:35;;;;;;;;;;;;;;;;;;5014133;28;20399;-66
2022/03/22 04:33:33;;;;;;;;;;;;;;;;;;5021937;28;19924;-65
2022/03/22 04:35:59;;;;;;;;;;;;;;;;;;5006965;28;19959;-65
2022/03/22 04:38:25;;;;;;;;;;;;;;;;;;5017772;28;20373;-65
2022/03/22 04:40:51;;;;;;;;;;;;;;;;;;5012294;28;22689;-65
2022/03/22 04:43:17;;;;;;;;;;;;;;;;;;5020254;28;19979;-66
2022/03/22 04:45:44;;;;;;;;;;;;;;;;;;5015309;28;20437;-65
2022/03/22 04:48:10;;;;;;;;;;;;;;;;;;5023072;28;20028;-65
2022/03/22 04:50:36;;;;;;;;;;;;;;;;;;5014076;28;19924;-65
2022/03/22 04:58:33;;;;;;;;;;;;;;;;;;5019153;28;20018;-65
2022/03/22 05:00:59;;;;;;;;;;;;;;;;;;5021533;28;19916;-65
2022/03/22 05:03:25;;;;;;;;;;;;;;;;;;5022372;28;20507;-64
2022/03/22 05:08:35;;;;;;;;;;;;;;;;;;5016473;28;19931;-65
2022/03/22 05:11:01;;;;;;;;;;;;;;;;;;5019839;28;19929;-64
2022/03/22 05:13:27;;;;;;;;;;;;;;;;;;5017447;28;19921;-67
2022/03/22 05:15:53;;;;;;;;;;;;;;;;;;5020879;28;20763;-64
2022/03/22 05:18:20;;;;;;;;;;;;;;;;;;5019278;28;19932;-64
2022/03/22 05:20:46;;;;;;;;;;;;;;;;;;5001913;28;20581;-64
2022/03/22 05:23:12;;;;;;;;;;;;;;;;;;5024899;28;19920;-66
2022/03/22 05:25:38;;;;;;;;;;;;;;;;;;5003185;28;20367;-64
2022/03/22 05:28:04;;;;;;;;;;;;;;;;;;5024190;28;19916;-65
2022/03/22 05:30:30;;;;;;;;;;;;;;;;;;5025825;28;19917;-66
2022/03/22 05:32:56;;;;;;;;;;;;;;;;;;5019651;28;19916;-65
2022/03/22 05:35:23;;;;;;;;;;;;;;;;;;5006521;28;19995;-65
2022/03/22 05:37:49;;;;;;;;;;;;;;;;;;5004114;28;20027;-65
2022/03/22 05:40:16;;;;;;;;;;;;;;;;;;5021269;28;19943;-65
2022/03/22 05:42:42;;;;;;;;;;;;;;;;;;5003123;28;20931;-65
2022/03/22 05:45:10;;;;;;;;;;;;;;;;;;5025989;28;19944;-66
2022/03/22 05:47:36;;;;;;;;;;;;;;;;;;5017420;28;19920;-65
2022/03/22 05:50:02;;;;;;;;;;;;;;;;;;5013179;28;20035;-65
2022/03/22 05:52:28;;;;;;;;;;;;;;;;;;5019098;28;19940;-65
2022/03/22 05:54:54;;;;;;;;;;;;;;;;;;5018298;28;20003;-65
2022/03/22 05:57:20;;;;;;;;;;;;;;;;;;5024548;28;20454;-65
2022/03/22 05:59:46;;;;;;;;;;;;;;;;;;5018486;28;19994;-65
2022/03/22 06:02:13;;;;;;;;;;;;;;;;;;5023943;28;20378;-65
2022/03/22 06:04:39;;;;;;;;;;;;;;;;;;5001906;28;19951;-65
2022/03/22 06:07:05;;;;;;;;;;;;;;;;;;5018902;28;19917;-65
2022/03/22 06:09:31;;;;;;;;;;;;;;;;;;5021088;28;19975;-65
2022/03/22 06:11:57;;;;;;;;;;;;;;;;;;5018736;28;19989;-64
2022/03/22 06:14:23;;;;;;;;;;;;;;;;;;5021744;28;19921;-65
2022/03/22 06:16:49;;;;;;;;;;;;;;;;;;5020330;28;19924;-65
2022/03/22 06:19:15;;;;;;;;;;;;;;;;;;5022157;28;20359;-64
2022/03/22 06:21:41;;;;;;;;;;;;;;;;;;5014556;28;19917;-65
2022/03/22 06:24:07;;;;;;;;;;;;;;;;;;5019177;28;19965;-65
2022/03/22 06:26:33;;;;;;;;;;;;;;;;;;5017835;28;20011;-65
2022/03/22 06:29:00;;;;;;;;;;;;;;;;;;5019919;28;19924;-64
2022/03/22 06:31:27;;;;;;;;;;;;;;;;;;5020134;28;19917;-65
2022/03/22 06:33:53;;;;;;;;;;;;;;;;;;5019621;28;20930;-65
2022/03/22 06:36:19;;;;;;;;;;;;;;;;;;5021917;28;19924;-66
2022/03/22 06:38:45;;;;;;;;;;;;;;;;;;5020104;28;20592;-66
2022/03/22 06:41:11;;;;;;;;;;;;;;;;;;5024688;28;19942;-64
2022/03/22 06:43:37;;;;;;;;;;;;;;;;;;5017640;28;20363;-64
2022/03/22 06:46:03;;;;;;;;;;;;;;;;;;5017304;28;19917;-65
2022/03/22 06:48:29;;;;;;;;;;;;;;;;;;5020080;28;19917;-65
2022/03/22 06:50:55;;;;;;;;;;;;;;;;;;5000840;28;20228;-65
2022/03/22 06:53:21;;;;;;;;;;;;;;;;;;5020130;28;20405;-65
2022/03/22 06:55:47;;;;;;;;;;;;;;;;;;5016321;28;19917;-65
2022/03/22 06:58:16;;;;;;;;;;;;;;;;;;5015599;28;19932;-65
2022/03/22 07:00:42;;;;;;;;;;;;;;;;;;5013390;28;19931;-65
2022/03/22 07:03:08;;;;;;;;;;;;;;;;;;5017573;28;19916;-65
2022/03/22 07:05:34;;;;;;;;;;;;;;;;;;5010797;28;20188;-65
2022/03/22 07:08:00;;;;;;;;;;;;;;;;;;5014813;28;19991;-65
2022/03/22 07:10:26;;;;;;;;;;;;;;;;;;5015866;28;19931;-65
2022/03/22 07:12:52;;;;;;;;;;;;;;;;;;5010081;28;19917;-64
2022/03/22 07:15:18;;;;;;;;;;;;;;;;;;5001408;28;20413;-64
2022/03/22 07:17:45;;;;;;;;;;;;;;;;;;5008785;28;19971;-66
2022/03/22 07:20:11;;;;;;;;;;;;;;;;;;5000271;28;20015;-66
2022/03/22 07:22:37;;;;;;;;;;;;;;;;;;5018887;28;20293;-65
2022/03/22 07:25:03;;;;;;;;;;;;;;;;;;5019753;28;19970;-65
2022/03/22 07:27:30;;;;;;;;;;;;;;;;;;5016112;28;19917;-65
2022/03/22 07:29:57;;;;;;;;;;;;;;;;;;4998072;28;19931;-65
2022/03/22 07:32:23;;;;;;;;;;;;;;;;;;5017652;28;19963;-65
2022/03/22 07:34:49;;;;;;;;;;;;;;;;;;5016449;28;20495;-66
2022/03/22 07:37:15;;;;;;;;;;;;;;;;;;5019129;28;19921;-66
2022/03/22 07:39:41;;;;;;;;;;;;;;;;;;5016509;28;20689;-66
2022/03/22 07:42:09;;;;;;;;;;;;;;;;;;5023454;28;19999;-66
2022/03/22 07:44:35;;;;;;;;;;;;;;;;;;5002190;28;19917;-65
2022/03/22 07:47:01;;;;;;;;;;;;;;;;;;5004697;28;19917;-65
2022/03/22 07:54:56;;;;;;;;;;;;;;;;;;5014333;28;19970;-65
2022/03/22 07:57:22;;;;;;;;;;;;;;;;;;5003212;28;19917;-65
2022/03/22 07:59:48;;;;;;;;;;;;;;;;;;5018632;28;19917;-65
2022/03/22 08:02:14;;;;;;;;;;;;;;;;;;5018917;28;20015;-67
2022/03/22 08:04:40;;;;;;;;;;;;;;;;;;5017678;28;20161;-67
2022/03/22 08:07:07;;;;;;;;;;;;;;;;;;5016913;28;20021;-65
2022/03/22 08:09:33;;;;;;;;;;;;;;;;;;5015897;28;19929;-65
2022/03/22 08:11:59;;;;;;;;;;;;;;;;;;5016360;28;19924;-65
2022/03/22 08:14:25;;;;;;;;;;;;;;;;;;5021491;28;20477;-65
2022/03/22 08:16:51;;;;;;;;;;;;;;;;;;5013447;28;19925;-65
2022/03/22 08:19:20;;;;;;;;;;;;;;;;;;5021174;28;19927;-67
2022/03/22 08:21:48;;;;;;;;;;;;;;;;;;5018537;28;19916;-65
2022/03/22 08:24:14;;;;;;;;;;;;;;;;;;5019757;28;19912;-66
2022/03/22 08:26:40;;;;;;;;;;;;;;;;;;5016289;28;19994;-65
2022/03/22 08:29:06;;;;;;;;;;;;;;;;;;4999298;28;20374;-65
2022/03/22 08:31:32;;;;;;;;;;;;;;;;;;5018596;28;20435;-65
2022/03/22 08:33:58;;;;;;;;;;;;;;;;;;5015956;28;20073;-65
2022/03/22 08:36:24;;;;;;;;;;;;;;;;;;5019151;28;19916;-65
2022/03/22 08:38:51;;;;;;;;;;;;;;;;;;5013235;28;20666;-65
2022/03/22 08:41:17;;;;;;;;;;;;;;;;;;5017964;28;20471;-65
2022/03/22 08:43:43;;;;;;;;;;;;;;;;;;5016481;28;20686;-66
2022/03/22 08:46:09;;;;;;;;;;;;;;;;;;5021662;28;19952;-65
2022/03/22 08:48:35;;;;;;;;;;;;;;;;;;5016279;28;19920;-65
2022/03/22 08:51:01;;;;;;;;;;;;;;;;;;5019809;28;20011;-66
2022/03/22 08:53:27;;;;;;;;;;;;;;;;;;5019518;28;20016;-65
2022/03/22 08:55:53;;;;;;;;;;;;;;;;;;5016127;28;20715;-65
2022/03/22 08:58:19;;;;;;;;;;;;;;;;;;5022190;28;19927;-66
2022/03/22 09:00:45;;;;;;;;;;;;;;;;;;5021097;28;20458;-66
2022/03/22 09:03:11;;;;;;;;;;;;;;;;;;5025136;28;20165;-65
2022/03/22 09:08:33;;;;;;;;;;;;;;;;;;5016102;28;20007;-66
2022/03/22 09:10:59;;;;;;;;;;;;;;;;;;5023425;28;19929;-66
2022/03/22 09:13:30;;;;;;;;;;;;;;;;;;5019432;28;20885;-66
2022/03/22 09:15:56;;;;;;;;;;;;;;;;;;5018278;28;19963;-67
2022/03/22 09:18:22;;;;;;;;;;;;;;;;;;5004657;28;20078;-66
2022/03/22 09:20:48;;;;;;;;;;;;;;;;;;5017923;28;20313;-67
2022/03/22 09:23:14;;;;;;;;;;;;;;;;;;5025041;28;20266;-67
2022/03/22 09:25:40;;;;;;;;;;;;;;;;;;5016717;28;19970;-67
2022/03/22 09:28:07;;;;;;;;;;;;;;;;;;5021554;28;20738;-67
2022/03/22 09:30:34;;;;;;;;;;;;;;;;;;5020549;28;20030;-66
2022/03/22 09:33:01;;;;;;;;;;;;;;;;;;5024173;28;19970;-72
2022/03/22 09:35:27;;;;;;;;;;;;;;;;;;5020892;28;19920;-72
2022/03/22 09:37:53;;;;;;;;;;;;;;;;;;5001211;28;20576;-71
2022/03/22 09:40:19;;;;;;;;;;;;;;;;;;5021204;28;20286;-68
2022/03/22 09:42:45;;;;;;;;;;;;;;;;;;5017602;28;19921;-69
2022/03/22 09:45:13;;;;;;;;;;;;;;;;;;5022202;28;20378;-70
2022/03/22 09:47:39;;;;;;;;;;;;;;;;;;5014859;28;20489;-69
2022/03/22 09:50:05;;;;;;;;;;;;;;;;;;5020009;28;19920;-69
2022/03/22 09:52:31;;;;;;;;;;;;;;;;;;5008714;28;20323;-69
2022/03/22 09:54:57;;;;;;;;;;;;;;;;;;5018156;28;19917;-69
2022/03/22 09:57:23;;;;;;;;;;;;;;;;;;5022134;28;20327;-69
2022/03/22 09:59:49;;;;;;;;;;;;;;;;;;4999554;28;20023;-69
2022/03/22 10:02:15;;;;;;;;;;;;;;;;;;5006062;28;19994;-69
2022/03/22 10:04:41;;;;;;;;;;;;;;;;;;5020678;28;19945;-68
2022/03/22 10:07:07;;;;;;;;;;;;;;;;;;5018901;28;20007;-68
2022/03/22 10:09:33;;;;;;;;;;;;;;;;;;5023449;28;20019;-68
2022/03/22 10:11:59;;;;;;;;;;;;;;;;;;5019123;28;20015;-69
2022/03/22 10:14:25;;;;;;;;;;;;;;;;;;5022305;28;20423;-69
2022/03/22 10:16:51;;;;;;;;;;;;;;;;;;5020817;28;19917;-69
2022/03/22 10:19:17;;;;;;;;;;;;;;;;;;5016202;28;20252;-68
2022/03/22 10:21:43;;;;;;;;;;;;;;;;;;5017119;28;19924;-69
2022/03/22 10:24:09;;;;;;;;;;;;;;;;;;5019915;28;19927;-69
2022/03/22 10:26:35;;;;;;;;;;;;;;;;;;5017356;28;20454;-70
2022/03/22 10:29:01;;;;;;;;;;;;;;;;;;5021475;28;19917;-69
2022/03/22 10:31:27;;;;;;;;;;;;;;;;;;5018218;28;19917;-69
2022/03/22 10:33:53;;;;;;;;;;;;;;;;;;5016590;28;20770;-68
2022/03/22 10:36:21;;;;;;;;;;;;;;;;;;5022214;28;20248;-70
2022/03/22 10:38:47;;;;;;;;;;;;;;;;;;5016208;28;20371;-68
2022/03/22 10:41:13;;;;;;;;;;;;;;;;;;5022439;28;20406;-68
2022/03/22 10:43:39;;;;;;;;;;;;;;;;;;5019191;28;19923;-68
2022/03/22 10:46:09;;;;;;;;;;;;;;;;;;5001886;28;19921;-68
2022/03/22 10:48:40;;;;;;;;;;;;;;;;;;5016360;28;19955;-68
2022/03/22 10:51:06;;;;;;;;;;;;;;;;;;5021355;28;19920;-69
2022/03/22 10:53:32;;;;;;;;;;;;;;;;;;5018670;28;19917;-68
2022/03/22 10:55:58;;;;;;;;;;;;;;;;;;5016941;28;20373;-69
2022/03/22 10:58:25;;;;;;;;;;;;;;;;;;5018075;28;20039;-69
2022/03/22 11:00:51;;;;;;;;;;;;;;;;;;5002630;28;20363;-68
2022/03/22 11:03:17;;;;;;;;;;;;;;;;;;5017609;28;19963;-68
2022/03/22 11:05:43;;;;;;;;;;;;;;;;;;5002558;28;19928;-69
2022/03/22 11:08:09;;;;;;;;;;;;;;;;;;4982163;28;20368;-68
2022/03/22 11:10:35;;;;;;;;;;;;;;;;;;5019293;28;20385;-68
2022/03/22 11:13:01;;;;;;;;;;;;;;;;;;5025627;28;19916;-68
2022/03/22 11:15:27;;;;;;;;;;;;;;;;;;5021766;28;20042;-68
2022/03/22 11:17:53;;;;;;;;;;;;;;;;;;5022208;28;19921;-69
2022/03/22 11:20:19;;;;;;;;;;;;;;;;;;5016182;28;20251;-68
2022/03/22 11:22:45;;;;;;;;;;;;;;;;;;5019398;28;20367;-70
2022/03/22 11:25:11;;;;;;;;;;;;;;;;;;5024948;28;19923;-71
2022/03/22 11:27:38;;;;;;;;;;;;;;;;;;5020177;28;20347;-70
2022/03/22 11:30:04;;;;;;;;;;;;;;;;;;5023444;28;19924;-70
2022/03/22 11:35:15;;;;;;;;;;;;;;;;;;5018129;28;20710;-70
2022/03/22 11:37:41;;;;;;;;;;;;;;;;;;5017146;28;20033;-70
2022/03/22 11:42:52;;;;;;;;;;;;;;;;;;5018679;28;20008;-70
2022/03/22 11:45:19;;;;;;;;;;;;;;;;;;5020862;28;20377;-69
2022/03/22 11:47:47;;;;;;;;;;;;;;;;;;4999434;28;19979;-69
2022/03/22 11:50:18;;;;;;;;;;;;;;;;;;5016189;28;20005;-70
2022/03/22 11:52:44;;;;;;;;;;;;;;;;;;5016343;28;20369;-69
2022/03/22 11:55:10;;;;;;;;;;;;;;;;;;5005758;28;20716;-69
2022/03/22 11:57:36;;;;;;;;;;;;;;;;;;5015067;28;19916;-69
2022/03/22 12:00:02;;;;;;;;;;;;;;;;;;4995892;28;21221;-69
2022/03/22 12:02:28;;;;;;;;;;;;;;;;;;5019278;28;19917;-69
2022/03/22 12:04:54;;;;;;;;;;;;;;;;;;5017491;28;19967;-70
2022/03/22 12:07:20;;;;;;;;;;;;;;;;;;5014947;28;20467;-70
2022/03/22 12:09:46;;;;;;;;;;;;;;;;;;5019076;28;20378;-70
2022/03/22 12:12:12;;;;;;;;;;;;;;;;;;5017753;28;19916;-70
2022/03/22 12:14:38;;;;;;;;;;;;;;;;;;4997985;28;19927;-70
2022/03/22 12:17:04;;;;;;;;;;;;;;;;;;5018855;28;20378;-70
2022/03/22 12:19:30;;;;;;;;;;;;;;;;;;4999454;28;20406;-70
2022/03/22 12:21:56;;;;;;;;;;;;;;;;;;5017369;28;19921;-70
2022/03/22 12:24:22;;;;;;;;;;;;;;;;;;5012860;28;19924;-70
2022/03/22 12:26:48;;;;;;;;;;;;;;;;;;5001798;28;19921;-71
2022/03/22 12:29:14;;;;;;;;;;;;;;;;;;5023383;28;19924;-71
2022/03/22 12:31:40;;;;;;;;;;;;;;;;;;4992730;28;20319;-71
2022/03/22 12:34:06;;;;;;;;;;;;;;;;;;5019593;28;20006;-71
2022/03/22 12:36:32;;;;;;;;;;;;;;;;;;5003249;28;20691;-69
2022/03/22 12:38:58;;;;;;;;;;;;;;;;;;5013076;28;19994;-69
2022/03/22 12:41:25;;;;;;;;;;;;;;;;;;5018264;28;20386;-70
2022/03/22 12:43:51;;;;;;;;;;;;;;;;;;5013717;28;19983;-68
2022/03/22 12:46:17;;;;;;;;;;;;;;;;;;5003836;28;19920;-68
2022/03/22 12:48:43;;;;;;;;;;;;;;;;;;5018099;28;20292;-68
2022/03/22 12:51:09;;;;;;;;;;;;;;;;;;5023654;28;19916;-68
2022/03/22 12:53:35;;;;;;;;;;;;;;;;;;5021443;28;20435;-68
2022/03/22 12:56:02;;;;;;;;;;;;;;;;;;5015841;28;20336;-69
2022/03/22 12:58:28;;;;;;;;;;;;;;;;;;5016949;28;19927;-68
2022/03/22 13:00:54;;;;;;;;;;;;;;;;;;5013409;28;19920;-68
2022/03/22 13:03:20;;;;;;;;;;;;;;;;;;5005004;28;19921;-69
2022/03/22 13:05:55;;;;;;;;;;;;;;;;;;4996785;28;20394;-69
2022/03/22 13:08:21;;;;;;;;;;;;;;;;;;5017367;28;19960;-69
2022/03/22 13:16:17;;;;;;;;;;;;;;;;;;5017138;28;19970;-68
2022/03/22 13:18:43;;;;;;;;;;;;;;;;;;5013794;28;19928;-69
2022/03/22 13:21:09;;;;;;;;;;;;;;;;;;5015710;28;19917;-69
2022/03/22 13:23:35;;;;;;;;;;;;;;;;;;5014503;28;19920;-69
2022/03/22 13:26:01;;;;;;;;;;;;;;;;;;5001218;28;20409;-69
2022/03/22 13:28:27;;;;;;;;;;;;;;;;;;5017255;28;19917;-69
2022/03/22 13:30:53;;;;;;;;;;;;;;;;;;5011620;28;19968;-69
2022/03/22 13:33:20;;;;;;;;;;;;;;;;;;5016989;28;20376;-69
2022/03/22 13:35:46;;;;;;;;;;;;;;;;;;5012586;28;21050;-68
2022/03/22 13:38:13;;;;;;;;;;;;;;;;;;5016575;28;20018;-70
2022/03/22 13:40:42;;;;;;;;;;;;;;;;;;5014857;28;19921;-70
2022/03/22 13:43:08;;;;;;;;;;;;;;;;;;5015768;28;19962;-73
2022/03/22 13:45:34;;;;;;;;;;;;;;;;;;5020432;28;19920;-70
2022/03/22 13:48:00;;;;;;;;;;;;;;;;;;5018796;28;20036;-69
2022/03/22 13:50:26;;;;;;;;;;;;;;;;;;5009126;28;20386;-69
2022/03/22 13:52:51;;;;;;;;;;;;;;;;;;5022837;28;19921;-71
2022/03/22 13:55:18;;;;;;;;;;;;;;;;;;5017969;28;19939;-71
2022/03/22 13:57:44;;;;;;;;;;;;;;;;;;5012321;28;19922;-71
2022/03/22 14:00:10;;;;;;;;;;;;;;;;;;5014248;28;19916;-71
2022/03/22 14:02:36;;;;;;;;;;;;;;;;;;5011842;28;20085;-71
2022/03/22 14:05:02;;;;;;;;;;;;;;;;;;5016382;28;19924;-72
2022/03/22 14:07:28;;;;;;;;;;;;;;;;;;5017672;28;19917;-72
2022/03/22 14:09:54;;;;;;;;;;;;;;;;;;5010219;28;19939;-71
2022/03/22 14:12:20;;;;;;;;;;;;;;;;;;5013309;28;19917;-72
2022/03/22 14:14:46;;;;;;;;;;;;;;;;;;5017781;28;19967;-72
2022/03/22 14:17:13;;;;;;;;;;;;;;;;;;5016929;28;19916;-73
2022/03/22 14:19:39;;;;;;;;;;;;;;;;;;5010117;28;19921;-72
2022/03/22 14:22:05;;;;;;;;;;;;;;;;;;5004328;28;20327;-72
2022/03/22 14:24:31;;;;;;;;;;;;;;;;;;5002072;28;19923;-72
2022/03/22 14:26:57;;;;;;;;;;;;;;;;;;5010860;28;20381;-72
2022/03/22 14:29:23;;;;;;;;;;;;;;;;;;5018443;28;20432;-72
2022/03/22 14:31:49;;;;;;;;;;;;;;;;;;5012672;28;19916;-72
2022/03/22 14:35:46;;;;;;;;;;;;;;;;;;5004351;28;20224;-71
2022/03/22 14:37:01;;;;;;;;;;;;;;;;;;5016251;28;19917;-72
2022/03/22 14:39:30;;;;;;;;;;;;;;;;;;5014901;28;20102;-71
2022/03/22 14:41:56;;;;;;;;;;;;;;;;;;5020801;28;19918;-71
2022/03/22 14:44:22;;;;;;;;;;;;;;;;;;5016170;28;19917;-71
2022/03/22 14:46:51;;;;;;;;;;;;;;;;;;5014008;28;19921;-71
2022/03/22 14:49:18;;;;;;;;;;;;;;;;;;5019986;28;19917;-72
2022/03/22 14:54:30;;;;;;;;;;;;;;;;;;5020009;28;20068;-72
2022/03/22 14:59:41;;;;;;;;;;;;;;;;;;5011055;28;19963;-72
2022/03/22 15:02:07;;;;;;;;;;;;;;;;;;5000499;28;20023;-71
2022/03/22 15:04:34;;;;;;;;;;;;;;;;;;5019254;28;20428;-71
2022/03/22 15:07:00;;;;;;;;;;;;;;;;;;5019693;28;20315;-70
2022/03/22 15:09:26;;;;;;;;;;;;;;;;;;5015081;28;20391;-71
2022/03/22 15:11:52;;;;;;;;;;;;;;;;;;5012446;28;20375;-70
2022/03/22 15:14:18;;;;;;;;;;;;;;;;;;5017162;28;20270;-71
2022/03/22 15:16:44;;;;;;;;;;;;;;;;;;5001741;28;19923;-70
2022/03/22 15:19:10;;;;;;;;;;;;;;;;;;5015274;28;20016;-71
2022/03/22 15:21:37;;;;;;;;;;;;;;;;;;5012928;28;20448;-71
2022/03/22 15:24:03;;;;;;;;;;;;;;;;;;5007793;28;19956;-71
2022/03/22 15:26:31;;;;;;;;;;;;;;;;;;5007805;28;19917;-71
2022/03/22 15:28:57;;;;;;;;;;;;;;;;;;5012249;28;20066;-71
2022/03/22 15:31:23;;;;;;;;;;;;;;;;;;5017101;28;19929;-72
2022/03/22 15:33:49;;;;;;;;;;;;;;;;;;5003807;28;19917;-71
2022/03/22 15:36:15;;;;;;;;;;;;;;;;;;5017328;28;20356;-71
2022/03/22 15:38:41;;;;;;;;;;;;;;;;;;5014038;28;19921;-71
2022/03/22 15:41:07;;;;;;;;;;;;;;;;;;5017412;28;20553;-71
2022/03/22 15:43:33;;;;;;;;;;;;;;;;;;5006551;28;20422;-70
2022/03/22 15:45:59;;;;;;;;;;;;;;;;;;5016599;28;19921;-72
2022/03/22 15:48:25;;;;;;;;;;;;;;;;;;5016147;28;20353;-71
2022/03/22 15:50:51;;;;;;;;;;;;;;;;;;5016702;28;20655;-71
2022/03/22 15:53:17;;;;;;;;;;;;;;;;;;5017817;28;19979;-71
2022/03/22 15:55:43;;;;;;;;;;;;;;;;;;5013018;28;20491;-71
2022/03/22 15:58:09;;;;;;;;;;;;;;;;;;5017273;28;20077;-71
2022/03/22 16:00:38;;;;;;;;;;;;;;;;;;5023203;28;20046;-68
2022/03/22 16:03:05;;;;;;;;;;;;;;;;;;5014484;28;19917;-68
2022/03/22 16:05:31;;;;;;;;;;;;;;;;;;5014871;28;19964;-69
2022/03/22 16:07:57;;;;;;;;;;;;;;;;;;5011937;28;20446;-69
2022/03/22 16:10:24;;;;;;;;;;;;;;;;;;5007937;28;19935;-69
2022/03/22 16:12:50;;;;;;;;;;;;;;;;;;5017063;28;19917;-68
2022/03/22 16:15:16;;;;;;;;;;;;;;;;;;5021360;28;20192;-68
2022/03/22 16:17:42;;;;;;;;;;;;;;;;;;5015800;28;20375;-68
2022/03/22 16:20:09;;;;;;;;;;;;;;;;;;5019095;28;20353;-68
2022/03/22 16:22:35;;;;;;;;;;;;;;;;;;5009981;28;19948;-68
2022/03/22 16:25:03;;;;;;;;;;;;;;;;;;5017075;28;20015;-68
2022/03/22 16:27:29;;;;;;;;;;;;;;;;;;5014789;28;19924;-68
2022/03/22 16:29:55;;;;;;;;;;;;;;;;;;5001545;28;19921;-68
2022/03/22 16:36:45;;;;;;;;;;;;;;;;;;5015821;28;19916;-68
2022/03/22 16:37:51;;;;;;;;;;;;;;;;;;5013746;28;19974;-68
2022/03/22 16:40:17;;;;;;;;;;;;;;;;;;5014001;28;20275;-69
2022/03/22 16:42:44;;;;;;;;;;;;;;;;;;5010213;28;19971;-69
2022/03/22 16:45:10;;;;;;;;;;;;;;;;;;5011315;28;19921;-69
2022/03/22 16:47:36;;;;;;;;;;;;;;;;;;5010955;28;20003;-69
2022/03/22 16:50:04;;;;;;;;;;;;;;;;;;5000051;28;20033;-70
2022/03/22 16:52:30;;;;;;;;;;;;;;;;;;5012436;28;20232;-69
2022/03/22 16:54:57;;;;;;;;;;;;;;;;;;5010178;28;19921;-69
2022/03/22 16:57:24;;;;;;;;;;;;;;;;;;5012436;28;19944;-70
2022/03/22 16:59:50;;;;;;;;;;;;;;;;;;5009110;28;19956;-70
2022/03/22 17:02:16;;;;;;;;;;;;;;;;;;4995808;28;20368;-70
2022/03/22 17:04:42;;;;;;;;;;;;;;;;;;4998368;28;19978;-70
2022/03/22 17:07:08;;;;;;;;;;;;;;;;;;5015147;28;20740;-70
2022/03/22 17:09:35;;;;;;;;;;;;;;;;;;4998803;28;19929;-71
2022/03/22 17:12:01;;;;;;;;;;;;;;;;;;5017454;28;19916;-70
2022/03/22 17:14:27;;;;;;;;;;;;;;;;;;5004611;28;19927;-70
2022/03/22 17:16:53;;;;;;;;;;;;;;;;;;4997686;28;20457;-70
2022/03/22 17:19:20;;;;;;;;;;;;;;;;;;5013445;28;19956;-69
2022/03/22 17:21:46;;;;;;;;;;;;;;;;;;5013901;28;20363;-70
2022/03/22 17:24:12;;;;;;;;;;;;;;;;;;5016644;28;19994;-70
2022/03/22 17:26:38;;;;;;;;;;;;;;;;;;5018119;28;19920;-70
2022/03/22 17:29:03;;;;;;;;;;;;;;;;;;5016949;28;19924;-72
2022/03/22 17:31:32;;;;;;;;;;;;;;;;;;5025061;28;19917;-70
2022/03/22 17:33:58;;;;;;;;;;;;;;;;;;5016843;28;19917;-70
2022/03/22 17:36:24;;;;;;;;;;;;;;;;;;5024969;28;20189;-71